createdAt,value
2023-02-24T00:00:03.690Z,16.50
2023-02-24T00:01:03.717Z,16.50
2023-02-24T00:02:03.777Z,16.10
2023-02-24T00:03:03.809Z,16.10
2023-02-24T00:04:03.688Z,16.40
2023-02-24T00:05:03.626Z,16.60
2023-02-24T00:06:03.856Z,15.70
2023-02-24T00:07:03.692Z,16.70
2023-02-24T00:08:03.624Z,16.20
2023-02-24T00:09:04.562Z,16.30
2023-02-24T00:10:03.826Z,16.80
2023-02-24T00:11:03.728Z,16.30
2023-02-24T00:12:03.626Z,15.50
2023-02-24T00:13:03.705Z,16.70
2023-02-24T00:14:03.602Z,16.90
2023-02-24T00:15:03.516Z,15.90
2023-02-24T00:16:03.615Z,15.30
2023-02-24T00:17:03.698Z,15.60
2023-02-24T00:18:03.609Z,16.10
2023-02-24T00:19:03.555Z,16.40
2023-02-24T00:20:03.609Z,15.90
2023-02-24T00:21:03.511Z,15.30
2023-02-24T00:22:03.488Z,15.50
2023-02-24T00:23:03.454Z,17.20
2023-02-24T00:24:04.385Z,16.50
2023-02-24T00:25:03.404Z,16.50
2023-02-24T00:26:03.440Z,16.00
2023-02-24T00:27:03.404Z,16.50
2023-02-24T00:28:03.384Z,16.50
2023-02-24T00:29:03.651Z,15.50
2023-02-24T00:30:03.430Z,16.80
2023-02-24T00:31:03.529Z,16.10
2023-02-24T00:32:03.721Z,15.70
2023-02-24T00:33:03.532Z,16.30
2023-02-24T00:34:03.431Z,17.20
2023-02-24T00:35:03.293Z,16.60
2023-02-24T00:36:03.280Z,16.60
2023-02-24T00:37:03.395Z,16.10
2023-02-24T00:38:03.332Z,16.30
2023-02-24T00:39:03.240Z,16.60
2023-02-24T00:40:03.249Z,16.80
2023-02-24T00:41:03.245Z,16.30
2023-02-24T00:42:03.210Z,16.30
2023-02-24T00:43:03.241Z,15.20
2023-02-24T00:44:03.190Z,16.90
2023-02-24T00:45:03.183Z,16.80
2023-02-24T00:46:03.265Z,17.00
2023-02-24T00:47:03.155Z,16.50
2023-02-24T00:48:03.166Z,16.50
2023-02-24T00:49:03.140Z,16.50
2023-02-24T00:50:03.165Z,16.40
2023-02-24T00:51:03.127Z,16.20
2023-02-24T00:52:03.107Z,16.50
2023-02-24T00:53:03.118Z,15.70
2023-02-24T00:54:03.110Z,16.50
2023-02-24T00:55:03.125Z,16.60
2023-02-24T00:56:03.080Z,16.20
2023-02-24T00:57:03.107Z,16.80
2023-02-24T00:58:03.083Z,15.90
2023-02-24T00:59:03.039Z,16.50
2023-02-24T01:00:03.035Z,17.00
2023-02-24T01:01:03.239Z,16.80
2023-02-24T01:02:03.200Z,16.60
2023-02-24T01:03:03.063Z,16.20
2023-02-24T01:04:04.615Z,16.00
2023-02-24T01:05:03.007Z,17.20
2023-02-24T01:06:04.012Z,16.30
2023-02-24T01:07:04.370Z,16.20
2023-02-24T01:08:03.356Z,16.40
2023-02-24T01:09:03.975Z,17.10
2023-02-24T01:10:05.792Z,17.20
2023-02-24T01:11:03.181Z,17.20
2023-02-24T01:12:03.371Z,17.00
2023-02-24T01:13:03.133Z,16.40
2023-02-24T01:14:03.400Z,16.80
2023-02-24T01:15:03.284Z,17.10
2023-02-24T01:16:03.092Z,17.10
2023-02-24T01:17:03.510Z,16.90
2023-02-24T01:18:02.847Z,15.90
2023-02-24T01:19:02.808Z,16.30
2023-02-24T01:20:03.358Z,16.20
2023-02-24T01:21:03.872Z,16.80
2023-02-24T01:22:03.462Z,16.70
2023-02-24T01:23:03.493Z,15.70
2023-02-24T01:24:03.914Z,16.30
2023-02-24T01:25:02.768Z,17.20
2023-02-24T01:26:02.747Z,17.00
2023-02-24T01:27:02.732Z,17.10
2023-02-24T01:28:02.738Z,16.20
2023-02-24T01:29:02.698Z,16.90
2023-02-24T01:30:02.690Z,16.40
2023-02-24T01:31:02.844Z,17.10
2023-02-24T01:32:02.925Z,17.20
2023-02-24T01:33:02.817Z,16.20
2023-02-24T01:34:02.705Z,16.90
2023-02-24T01:35:02.637Z,16.70
2023-02-24T01:36:02.651Z,17.00
2023-02-24T01:37:02.631Z,17.40
2023-02-24T01:38:02.631Z,15.90
2023-02-24T01:39:02.620Z,16.90
2023-02-24T01:40:02.611Z,16.30
2023-02-24T01:41:02.573Z,17.00
2023-02-24T01:42:02.589Z,16.70
2023-02-24T01:43:02.562Z,16.30
2023-02-24T01:44:02.564Z,16.10
2023-02-24T01:45:02.562Z,16.40
2023-02-24T01:46:02.541Z,16.40
2023-02-24T01:47:02.510Z,17.10
2023-02-24T01:48:02.520Z,16.60
2023-02-24T01:49:02.507Z,16.60
2023-02-24T01:50:02.479Z,16.30
2023-02-24T01:51:02.473Z,16.10
2023-02-24T01:52:02.473Z,17.40
2023-02-24T01:53:02.451Z,17.00
2023-02-24T01:54:02.480Z,15.90
2023-02-24T01:55:02.429Z,15.90
2023-02-24T01:56:02.442Z,15.50
2023-02-24T01:57:02.410Z,16.50
2023-02-24T01:58:02.424Z,16.80
2023-02-24T01:59:02.445Z,16.30
2023-02-24T02:00:02.383Z,15.70
2023-02-24T02:01:02.374Z,16.10
2023-02-24T02:02:02.442Z,15.90
2023-02-24T02:03:02.359Z,16.20
2023-02-24T02:04:02.355Z,15.80
2023-02-24T02:05:02.324Z,15.50
2023-02-24T02:06:02.326Z,16.30
2023-02-24T02:07:02.309Z,15.70
2023-02-24T02:08:02.296Z,16.90
2023-02-24T02:09:02.268Z,16.10
2023-02-24T02:10:02.318Z,15.60
2023-02-24T02:11:02.262Z,15.30
2023-02-24T02:12:02.255Z,16.40
2023-02-24T02:13:02.222Z,15.80
2023-02-24T02:14:02.305Z,16.50
2023-02-24T02:15:02.215Z,15.70
2023-02-24T02:16:02.276Z,16.50
2023-02-24T02:17:02.198Z,16.60
2023-02-24T02:18:02.174Z,16.90
2023-02-24T02:19:02.158Z,16.70
2023-02-24T02:20:02.153Z,15.90
2023-02-24T02:21:02.173Z,15.40
2023-02-24T02:22:02.128Z,16.00
2023-02-24T02:23:02.117Z,15.50
2023-02-24T02:24:02.163Z,15.90
2023-02-24T02:25:02.101Z,16.40
2023-02-24T02:26:02.093Z,16.30
2023-02-24T02:27:02.094Z,15.60
2023-02-24T02:28:02.087Z,15.90
2023-02-24T02:29:02.055Z,15.90
2023-02-24T02:30:02.060Z,15.20
2023-02-24T02:31:02.195Z,16.50
2023-02-24T02:32:02.127Z,15.60
2023-02-24T02:33:02.199Z,15.50
2023-02-24T02:34:01.997Z,15.50
2023-02-24T02:35:02.018Z,15.90
2023-02-24T02:36:01.981Z,16.80
2023-02-24T02:37:01.974Z,15.40
2023-02-24T02:38:01.971Z,15.80
2023-02-24T02:39:01.962Z,15.30
2023-02-24T02:40:01.935Z,15.60
2023-02-24T02:41:01.915Z,16.60
2023-02-24T02:42:01.908Z,15.70
2023-02-24T02:43:01.920Z,16.00
2023-02-24T02:44:01.910Z,15.30
2023-02-24T02:45:01.916Z,15.90
2023-02-24T02:46:01.923Z,16.10
2023-02-24T02:47:01.844Z,15.40
2023-02-24T02:48:01.850Z,16.20
2023-02-24T02:49:01.838Z,14.70
2023-02-24T02:50:01.859Z,15.70
2023-02-24T02:51:01.819Z,15.70
2023-02-24T02:52:01.795Z,15.80
2023-02-24T02:53:01.774Z,15.30
2023-02-24T02:54:01.802Z,15.50
2023-02-24T02:55:01.777Z,15.80
2023-02-24T02:56:01.777Z,15.60
2023-02-24T02:57:01.729Z,15.20
2023-02-24T02:58:01.730Z,15.40
2023-02-24T02:59:01.741Z,15.70
2023-02-24T03:00:01.737Z,14.90
2023-02-24T03:01:01.861Z,15.80
2023-02-24T03:02:01.704Z,15.60
2023-02-24T03:03:01.675Z,15.40
2023-02-24T03:04:01.685Z,15.50
2023-02-24T03:05:01.739Z,14.80
2023-02-24T03:06:01.639Z,15.90
2023-02-24T03:07:01.618Z,15.90
2023-02-24T03:08:01.631Z,16.80
2023-02-24T03:09:01.604Z,15.90
2023-02-24T03:10:01.629Z,15.10
2023-02-24T03:11:01.587Z,15.70
2023-02-24T03:12:01.600Z,15.40
2023-02-24T03:13:01.590Z,16.00
2023-02-24T03:14:01.559Z,16.20
2023-02-24T03:15:01.550Z,15.30
2023-02-24T03:16:01.554Z,15.00
2023-02-24T03:17:01.520Z,15.90
2023-02-24T03:18:01.517Z,15.10
2023-02-24T03:19:01.523Z,15.10
2023-02-24T03:20:01.503Z,15.90
2023-02-24T03:21:01.492Z,15.40
2023-02-24T03:22:01.468Z,16.10
2023-02-24T03:23:01.458Z,15.80
2023-02-24T03:24:01.470Z,15.80
2023-02-24T03:25:01.430Z,14.90
2023-02-24T03:26:01.421Z,15.40
2023-02-24T03:27:01.433Z,14.90
2023-02-24T03:28:01.405Z,15.70
2023-02-24T03:29:01.394Z,15.80
2023-02-24T03:30:01.392Z,15.20
2023-02-24T03:31:01.418Z,15.30
2023-02-24T03:32:01.480Z,15.70
2023-02-24T03:33:01.369Z,15.40
2023-02-24T03:34:01.350Z,15.50
2023-02-24T03:35:01.321Z,14.80
2023-02-24T03:36:01.333Z,15.10
2023-02-24T03:37:01.323Z,15.70
2023-02-24T03:38:01.306Z,16.00
2023-02-24T03:39:01.273Z,15.30
2023-02-24T03:40:01.268Z,15.90
2023-02-24T03:41:01.289Z,15.50
2023-02-24T03:42:01.249Z,16.20
2023-02-24T03:43:01.262Z,15.90
2023-02-24T03:44:01.248Z,16.20
2023-02-24T03:45:01.205Z,15.80
2023-02-24T03:46:01.243Z,15.60
2023-02-24T03:47:01.200Z,16.10
2023-02-24T03:48:01.187Z,15.60
2023-02-24T03:49:01.166Z,15.60
2023-02-24T03:50:01.182Z,16.10
2023-02-24T03:51:01.156Z,16.30
2023-02-24T03:52:01.157Z,15.70
2023-02-24T03:53:01.125Z,15.80
2023-02-24T03:54:01.124Z,16.40
2023-02-24T03:55:01.116Z,16.00
2023-02-24T03:56:01.105Z,15.30
2023-02-24T03:57:01.083Z,15.70
2023-02-24T03:58:01.082Z,15.60
2023-02-24T03:59:01.072Z,15.10
2023-02-24T04:00:01.095Z,15.70
2023-02-24T04:01:01.044Z,15.80
2023-02-24T04:02:01.049Z,15.20
2023-02-24T04:03:01.056Z,15.00
2023-02-24T04:04:01.020Z,16.20
2023-02-24T04:05:01.056Z,16.30
2023-02-24T04:06:00.997Z,15.50
2023-02-24T04:07:00.988Z,16.00
2023-02-24T04:08:00.984Z,14.90
2023-02-24T04:09:00.943Z,15.30
2023-02-24T04:10:00.968Z,16.40
2023-02-24T04:11:00.934Z,16.00
2023-02-24T04:12:00.922Z,15.70
2023-02-24T04:13:00.901Z,14.90
2023-02-24T04:14:00.917Z,15.40
2023-02-24T04:15:00.896Z,15.30
2023-02-24T04:16:00.944Z,16.00
2023-02-24T04:17:00.887Z,15.10
2023-02-24T04:18:00.869Z,14.50
2023-02-24T04:19:00.865Z,15.40
2023-02-24T04:20:00.849Z,16.20
2023-02-24T04:21:00.846Z,16.30
2023-02-24T04:22:00.827Z,15.00
2023-02-24T04:23:00.815Z,15.20
2023-02-24T04:24:00.826Z,15.70
2023-02-24T04:25:00.776Z,15.40
2023-02-24T04:26:00.822Z,16.10
2023-02-24T04:27:00.757Z,15.90
2023-02-24T04:28:00.762Z,15.40
2023-02-24T04:29:00.760Z,15.00
2023-02-24T04:30:00.741Z,15.70
2023-02-24T04:31:00.835Z,15.70
2023-02-24T04:32:00.902Z,15.60
2023-02-24T04:33:00.701Z,14.80
2023-02-24T04:34:00.705Z,16.10
2023-02-24T04:35:00.690Z,15.80
2023-02-24T04:36:00.659Z,16.20
2023-02-24T04:37:00.661Z,15.40
2023-02-24T04:38:00.641Z,15.10
2023-02-24T04:39:00.634Z,15.60
2023-02-24T04:40:00.635Z,16.20
2023-02-24T04:41:00.618Z,16.60
2023-02-24T04:42:00.613Z,15.60
2023-02-24T04:43:00.614Z,16.10
2023-02-24T04:44:00.605Z,15.50
2023-02-24T04:45:00.560Z,15.90
2023-02-24T04:46:00.676Z,15.80
2023-02-24T04:47:00.563Z,15.50
2023-02-24T04:48:00.544Z,15.30
2023-02-24T04:49:00.539Z,15.10
2023-02-24T04:50:00.510Z,15.80
2023-02-24T04:51:00.503Z,15.90
2023-02-24T04:52:00.494Z,16.30
2023-02-24T04:53:00.486Z,14.60
2023-02-24T04:54:00.492Z,15.20
2023-02-24T04:55:00.448Z,15.10
2023-02-24T04:56:00.468Z,16.20
2023-02-24T04:57:00.426Z,16.20
2023-02-24T04:58:00.447Z,15.20
2023-02-24T04:59:00.417Z,14.70
2023-02-24T05:00:00.437Z,16.50
2023-02-24T05:01:00.405Z,16.60
2023-02-24T05:02:00.377Z,15.50
2023-02-24T05:03:00.360Z,15.30
2023-02-24T05:04:00.433Z,15.60
2023-02-24T05:05:00.402Z,16.20
2023-02-24T05:06:00.566Z,16.20
2023-02-24T05:07:00.322Z,16.10
2023-02-24T05:08:00.313Z,16.10
2023-02-24T05:09:00.314Z,15.20
2023-02-24T05:10:00.312Z,15.90
2023-02-24T05:11:00.296Z,15.70
2023-02-24T05:12:00.313Z,16.40
2023-02-24T05:13:02.315Z,15.10
2023-02-24T05:14:00.274Z,15.20
2023-02-24T05:15:00.245Z,15.60
2023-02-24T05:16:00.273Z,15.80
2023-02-24T05:17:00.505Z,17.00
2023-02-24T05:18:00.214Z,15.40
2023-02-24T05:19:00.183Z,15.90
2023-02-24T05:20:00.169Z,15.40
2023-02-24T05:21:01.793Z,15.40
2023-02-24T05:22:00.180Z,15.30
2023-02-24T05:23:00.151Z,15.40
2023-02-24T05:24:00.149Z,14.90
2023-02-24T05:25:00.167Z,15.20
2023-02-24T05:26:00.110Z,15.40
2023-02-24T05:27:00.173Z,15.70
2023-02-24T05:28:00.103Z,16.30
2023-02-24T05:29:00.105Z,15.10
2023-02-24T05:30:00.114Z,16.00
2023-02-24T05:31:00.106Z,15.30
2023-02-24T05:32:00.239Z,16.10
2023-02-24T05:33:00.062Z,16.50
2023-02-24T05:34:00.052Z,15.30
2023-02-24T05:35:00.033Z,14.70
2023-02-24T05:36:00.026Z,15.30
2023-02-24T05:37:00.000Z,16.20
2023-02-24T05:38:00.019Z,16.60
2023-02-24T05:38:59.968Z,15.50
2023-02-24T05:39:59.990Z,16.30
2023-02-24T05:40:59.948Z,16.30
2023-02-24T05:41:59.982Z,16.60
2023-02-24T05:42:59.949Z,17.20
2023-02-24T05:43:59.922Z,15.50
2023-02-24T05:44:59.905Z,15.90
2023-02-24T05:45:59.895Z,16.10
2023-02-24T05:46:59.938Z,16.30
2023-02-24T05:47:59.888Z,16.60
2023-02-24T05:48:59.900Z,15.90
2023-02-24T05:49:59.839Z,15.50
2023-02-24T05:50:59.825Z,16.00
2023-02-24T05:51:59.850Z,16.00
2023-02-24T05:52:59.816Z,16.40
2023-02-24T05:53:59.827Z,16.00
2023-02-24T05:54:59.796Z,16.10
2023-02-24T05:55:59.796Z,15.90
2023-02-24T05:56:59.789Z,16.10
2023-02-24T05:57:59.764Z,16.10
2023-02-24T05:58:59.754Z,16.40
2023-02-24T05:59:59.748Z,15.80
2023-02-24T06:00:59.724Z,15.60
2023-02-24T06:01:59.774Z,16.20
2023-02-24T06:02:59.729Z,15.40
2023-02-24T06:03:59.698Z,15.60
2023-02-24T06:04:59.722Z,15.30
2023-02-24T06:05:59.686Z,16.10
2023-02-24T06:06:59.674Z,15.70
2023-02-24T06:07:59.656Z,16.70
2023-02-24T06:08:59.641Z,16.00
2023-02-24T06:10:00.310Z,15.90
2023-02-24T06:10:59.624Z,16.30
2023-02-24T06:12:07.187Z,16.00
2023-02-24T06:13:00.331Z,17.40
2023-02-24T06:13:59.601Z,17.80
2023-02-24T06:14:59.577Z,16.50
2023-02-24T06:15:59.622Z,16.10
2023-02-24T06:16:59.566Z,16.40
2023-02-24T06:17:59.554Z,16.30
2023-02-24T06:18:59.520Z,16.00
2023-02-24T06:19:59.531Z,16.50
2023-02-24T06:20:59.517Z,16.80
2023-02-24T06:21:59.524Z,16.30
2023-02-24T06:22:59.528Z,17.00
2023-02-24T06:23:59.499Z,16.70
2023-02-24T06:24:59.473Z,16.60
2023-02-24T06:25:59.453Z,16.10
2023-02-24T06:26:59.461Z,16.30
2023-02-24T06:27:59.420Z,15.60
2023-02-24T06:28:59.445Z,16.50
2023-02-24T06:29:59.437Z,16.30
2023-02-24T06:30:59.455Z,16.20
2023-02-24T06:31:59.594Z,15.40
2023-02-24T06:32:59.499Z,16.30
2023-02-24T06:33:59.388Z,16.40
2023-02-24T06:34:59.439Z,16.40
2023-02-24T06:35:59.360Z,15.90
2023-02-24T06:36:59.380Z,15.40
2023-02-24T06:37:59.313Z,15.90
2023-02-24T06:38:59.333Z,16.40
2023-02-24T06:39:59.339Z,15.80
2023-02-24T06:40:59.292Z,16.40
2023-02-24T06:41:59.311Z,15.80
2023-02-24T06:42:59.283Z,15.50
2023-02-24T06:43:59.265Z,15.90
2023-02-24T06:44:59.262Z,16.60
2023-02-24T06:45:59.316Z,15.80
2023-02-24T06:46:59.286Z,15.50
2023-02-24T06:47:59.221Z,15.20
2023-02-24T06:48:59.257Z,15.70
2023-02-24T06:49:59.240Z,16.10
2023-02-24T06:50:59.188Z,15.70
2023-02-24T06:51:59.177Z,15.60
2023-02-24T06:52:59.165Z,16.20
2023-02-24T06:53:59.191Z,15.90
2023-02-24T06:54:59.186Z,16.00
2023-02-24T06:55:59.114Z,16.00
2023-02-24T06:56:59.118Z,16.20
2023-02-24T06:57:59.116Z,16.30
2023-02-24T06:58:59.143Z,16.50
2023-02-24T06:59:59.073Z,16.40
2023-02-24T07:00:59.175Z,16.30
2023-02-24T07:01:59.066Z,15.80
2023-02-24T07:02:59.046Z,16.40
2023-02-24T07:03:59.052Z,16.30
2023-02-24T07:04:59.033Z,16.90
2023-02-24T07:05:59.026Z,16.20
2023-02-24T07:06:59.017Z,15.80
2023-02-24T07:07:58.984Z,17.00
2023-02-24T07:08:59.638Z,16.60
2023-02-24T07:09:58.992Z,17.30
2023-02-24T07:10:58.965Z,17.20
2023-02-24T07:11:59.075Z,16.40
2023-02-24T07:12:58.932Z,16.70
2023-02-24T07:13:58.923Z,16.80
2023-02-24T07:14:58.936Z,16.80
2023-02-24T07:15:58.921Z,16.60
2023-02-24T07:16:58.936Z,16.70
2023-02-24T07:17:58.880Z,15.90
2023-02-24T07:18:58.904Z,17.00
2023-02-24T07:19:58.875Z,18.10
2023-02-24T07:20:58.861Z,16.90
2023-02-24T07:21:58.842Z,16.80
2023-02-24T07:22:58.857Z,17.10
2023-02-24T07:23:59.560Z,16.90
2023-02-24T07:24:58.808Z,17.20
2023-02-24T07:25:58.803Z,17.90
2023-02-24T07:26:58.835Z,17.30
2023-02-24T07:27:58.781Z,17.60
2023-02-24T07:28:58.793Z,16.70
2023-02-24T07:29:58.764Z,16.90
2023-02-24T07:30:58.840Z,16.60
2023-02-24T07:31:59.013Z,16.60
2023-02-24T07:32:58.725Z,17.00
2023-02-24T07:33:58.698Z,16.20
2023-02-24T07:34:58.716Z,16.60
2023-02-24T07:35:58.710Z,17.30
2023-02-24T07:36:58.688Z,17.50
2023-02-24T07:37:58.703Z,17.00
2023-02-24T07:38:58.669Z,17.00
2023-02-24T07:39:58.650Z,16.60
2023-02-24T07:40:58.636Z,17.00
2023-02-24T07:41:58.660Z,17.40
2023-02-24T07:42:58.618Z,16.30
2023-02-24T07:43:58.629Z,16.40
2023-02-24T07:44:59.150Z,17.30
2023-02-24T07:45:58.656Z,17.20
2023-02-24T07:46:58.575Z,16.50
2023-02-24T07:48:00.506Z,16.80
2023-02-24T07:48:58.559Z,16.40
2023-02-24T07:49:58.536Z,17.10
2023-02-24T07:50:58.533Z,16.20
2023-02-24T07:51:58.508Z,17.10
2023-02-24T07:52:58.512Z,16.70
2023-02-24T07:53:58.483Z,15.80
2023-02-24T07:54:58.474Z,16.20
2023-02-24T07:55:58.464Z,17.60
2023-02-24T07:56:58.448Z,16.00
2023-02-24T07:57:58.463Z,17.60
2023-02-24T07:58:58.445Z,17.50
2023-02-24T07:59:58.420Z,16.40
2023-02-24T08:00:58.414Z,15.70
2023-02-24T08:01:58.434Z,16.70
2023-02-24T08:02:58.396Z,16.70
2023-02-24T08:03:58.384Z,16.70
2023-02-24T08:05:00.705Z,16.30
2023-02-24T08:05:58.364Z,15.70
2023-02-24T08:06:58.344Z,16.00
2023-02-24T08:07:58.349Z,16.20
2023-02-24T08:08:58.356Z,16.30
2023-02-24T08:09:58.335Z,16.00
2023-02-24T08:10:58.323Z,15.70
2023-02-24T08:11:58.302Z,16.50
2023-02-24T08:12:58.304Z,17.30
2023-02-24T08:13:58.277Z,17.10
2023-02-24T08:14:58.305Z,16.90
2023-02-24T08:15:58.299Z,17.20
2023-02-24T08:16:58.242Z,17.00
2023-02-24T08:17:58.419Z,17.60
2023-02-24T08:18:58.233Z,16.90
2023-02-24T08:19:58.223Z,16.80
2023-02-24T08:20:58.243Z,16.60
2023-02-24T08:21:58.184Z,16.30
2023-02-24T08:22:58.189Z,17.00
2023-02-24T08:23:58.160Z,17.00
2023-02-24T08:24:58.166Z,16.40
2023-02-24T08:25:58.185Z,16.60
2023-02-24T08:26:58.129Z,17.00
2023-02-24T08:28:08.466Z,17.70
2023-02-24T08:28:59.132Z,17.00
2023-02-24T08:29:58.178Z,17.30
2023-02-24T08:30:58.234Z,17.00
2023-02-24T08:31:58.241Z,16.80
2023-02-24T08:32:58.186Z,16.70
2023-02-24T08:33:58.053Z,16.80
2023-02-24T08:34:58.052Z,17.80
2023-02-24T08:35:58.678Z,17.00
2023-02-24T08:36:58.044Z,16.90
2023-02-24T08:37:58.035Z,16.80
2023-02-24T08:38:58.028Z,17.70
2023-02-24T08:39:58.967Z,17.20
2023-02-24T08:40:58.047Z,16.60
2023-02-24T08:41:57.975Z,17.20
2023-02-24T08:42:57.981Z,18.30
2023-02-24T08:43:57.994Z,17.50
2023-02-24T08:44:57.939Z,17.80
2023-02-24T08:45:57.910Z,17.60
2023-02-24T08:46:58.009Z,17.60
2023-02-24T08:47:57.903Z,17.30
2023-02-24T08:48:57.916Z,18.60
2023-02-24T08:49:57.893Z,17.70
2023-02-24T08:50:57.863Z,18.00
2023-02-24T08:51:57.870Z,17.20
2023-02-24T08:52:57.905Z,18.20
2023-02-24T08:53:57.874Z,18.70
2023-02-24T08:54:57.831Z,18.10
2023-02-24T08:55:57.841Z,17.20
2023-02-24T08:56:57.846Z,17.40
2023-02-24T08:57:57.816Z,16.40
2023-02-24T08:58:57.815Z,18.70
2023-02-24T08:59:57.910Z,18.00
2023-02-24T09:00:57.809Z,17.20
2023-02-24T09:02:04.651Z,17.20
2023-02-24T09:02:58.742Z,17.40
2023-02-24T09:03:57.746Z,19.10
2023-02-24T09:04:57.816Z,17.20
2023-02-24T09:05:57.706Z,17.00
2023-02-24T09:07:00.242Z,17.40
2023-02-24T09:07:58.683Z,17.70
2023-02-24T09:08:57.674Z,18.30
2023-02-24T09:09:57.702Z,16.90
2023-02-24T09:10:57.666Z,17.60
2023-02-24T09:11:57.634Z,16.60
2023-02-24T09:12:57.651Z,17.20
2023-02-24T09:13:57.611Z,17.70
2023-02-24T09:14:57.628Z,17.60
2023-02-24T09:15:57.620Z,18.00
2023-02-24T09:16:57.592Z,16.50
2023-02-24T09:17:57.574Z,16.90
2023-02-24T09:18:57.586Z,17.20
2023-02-24T09:19:57.587Z,16.40
2023-02-24T09:20:57.584Z,16.70
2023-02-24T09:21:57.553Z,17.90
2023-02-24T09:22:57.553Z,17.40
2023-02-24T09:23:57.512Z,16.80
2023-02-24T09:24:57.518Z,17.10
2023-02-24T09:25:57.493Z,17.50
2023-02-24T09:26:57.494Z,17.50
2023-02-24T09:27:57.481Z,17.10
2023-02-24T09:28:57.481Z,16.50
2023-02-24T09:29:57.455Z,16.10
2023-02-24T09:30:57.513Z,17.50
2023-02-24T09:31:57.506Z,17.30
2023-02-24T09:32:57.517Z,16.40
2023-02-24T09:33:57.657Z,16.60
2023-02-24T09:34:57.403Z,17.00
2023-02-24T09:35:57.391Z,16.80
2023-02-24T09:36:57.357Z,17.30
2023-02-24T09:37:57.371Z,16.80
2023-02-24T09:38:57.379Z,16.90
2023-02-24T09:39:57.345Z,16.80
2023-02-24T09:40:58.567Z,16.70
2023-02-24T09:41:57.310Z,17.40
2023-02-24T09:42:57.415Z,17.20
2023-02-24T09:43:57.705Z,16.40
2023-02-24T09:44:57.314Z,17.40
2023-02-24T09:45:57.351Z,17.00
2023-02-24T09:46:57.265Z,17.30
2023-02-24T09:47:57.558Z,17.00
2023-02-24T09:48:57.273Z,16.20
2023-02-24T09:49:57.289Z,16.00
2023-02-24T09:51:03.607Z,16.90
2023-02-24T09:51:58.214Z,16.50
2023-02-24T09:53:02.953Z,16.10
2023-02-24T09:53:58.179Z,15.90
2023-02-24T09:54:57.212Z,15.70
2023-02-24T09:55:57.186Z,16.30
2023-02-24T09:56:57.185Z,14.90
2023-02-24T09:57:57.159Z,15.20
2023-02-24T09:58:57.274Z,16.00
2023-02-24T09:59:57.110Z,15.30
2023-02-24T10:00:57.181Z,16.30
2023-02-24T10:01:57.222Z,15.20
2023-02-24T10:02:57.122Z,14.90
2023-02-24T10:03:57.090Z,14.90
2023-02-24T10:04:57.056Z,15.60
2023-02-24T10:05:57.091Z,15.40
2023-02-24T10:06:57.051Z,15.40
2023-02-24T10:07:57.081Z,15.40
2023-02-24T10:08:57.020Z,15.50
2023-02-24T10:09:57.031Z,15.30
2023-02-24T10:10:57.001Z,16.40
2023-02-24T10:11:57.020Z,15.60
2023-02-24T10:12:57.011Z,13.90
2023-02-24T10:14:03.378Z,15.10
2023-02-24T10:15:00.403Z,15.50
2023-02-24T10:15:57.412Z,15.00
2023-02-24T10:16:57.097Z,14.40
2023-02-24T10:17:56.916Z,14.60
2023-02-24T10:18:56.939Z,14.30
2023-02-24T10:19:56.892Z,14.60
2023-02-24T10:20:56.920Z,15.70
2023-02-24T10:21:56.917Z,13.50
2023-02-24T10:22:56.865Z,15.10
2023-02-24T10:23:56.898Z,14.50
2023-02-24T10:24:56.837Z,14.40
2023-02-24T10:25:56.859Z,14.90
2023-02-24T10:27:07.379Z,14.90
2023-02-24T10:27:57.875Z,13.80
2023-02-24T10:28:56.826Z,15.10
2023-02-24T10:29:56.808Z,15.70
2023-02-24T10:30:56.842Z,14.50
2023-02-24T10:31:56.976Z,13.70
2023-02-24T10:32:56.814Z,15.00
2023-02-24T10:33:56.793Z,15.10
2023-02-24T10:34:56.739Z,15.80
2023-02-24T10:35:56.738Z,15.00
2023-02-24T10:36:56.728Z,14.60
2023-02-24T10:37:56.722Z,14.40
2023-02-24T10:38:56.677Z,14.60
2023-02-24T10:39:56.692Z,15.70
2023-02-24T10:40:56.741Z,14.40
2023-02-24T10:41:56.743Z,14.90
2023-02-24T10:42:56.642Z,15.10
2023-02-24T10:43:56.711Z,14.80
2023-02-24T10:45:02.197Z,15.20
2023-02-24T10:45:57.656Z,15.30
2023-02-24T10:46:56.644Z,15.30
2023-02-24T10:47:57.204Z,15.10
2023-02-24T10:48:56.602Z,15.50
2023-02-24T10:49:56.614Z,15.60
2023-02-24T10:50:56.615Z,15.00
2023-02-24T10:51:56.606Z,15.50
2023-02-24T10:52:56.552Z,16.40
2023-02-24T10:53:56.535Z,16.50
2023-02-24T10:54:56.527Z,16.70
2023-02-24T10:55:56.497Z,16.50
2023-02-24T10:56:56.490Z,16.30
2023-02-24T10:57:59.206Z,16.50
2023-02-24T10:58:56.638Z,17.20
2023-02-24T10:59:56.560Z,16.50
2023-02-24T11:00:56.449Z,16.00
2023-02-24T11:01:56.494Z,16.30
2023-02-24T11:02:56.438Z,15.80
2023-02-24T11:03:56.943Z,16.80
2023-02-24T11:04:56.455Z,16.40
2023-02-24T11:05:56.401Z,14.90
2023-02-24T11:06:56.396Z,15.60
2023-02-24T11:07:56.392Z,15.90
2023-02-24T11:08:56.359Z,16.30
2023-02-24T11:09:56.356Z,16.00
2023-02-24T11:10:56.344Z,16.40
2023-02-24T11:11:56.315Z,15.60
2023-02-24T11:13:04.206Z,16.70
2023-02-24T11:13:57.334Z,16.90
2023-02-24T11:14:56.296Z,16.50
2023-02-24T11:15:56.335Z,16.00
2023-02-24T11:16:56.304Z,16.00
2023-02-24T11:17:56.300Z,16.80
2023-02-24T11:18:56.256Z,16.50
2023-02-24T11:19:56.248Z,15.90
2023-02-24T11:20:56.218Z,15.50
2023-02-24T11:21:56.232Z,17.10
2023-02-24T11:22:56.202Z,16.30
2023-02-24T11:23:56.193Z,17.00
2023-02-24T11:24:56.197Z,16.10
2023-02-24T11:25:56.179Z,16.00
2023-02-24T11:26:56.163Z,15.90
2023-02-24T11:27:56.181Z,16.60
2023-02-24T11:28:56.125Z,16.10
2023-02-24T11:29:56.117Z,17.10
2023-02-24T11:30:56.178Z,15.90
2023-02-24T11:31:56.244Z,17.10
2023-02-24T11:32:56.147Z,16.80
2023-02-24T11:33:56.101Z,17.10
2023-02-24T11:34:56.116Z,16.20
2023-02-24T11:35:56.057Z,16.40
2023-02-24T11:36:56.035Z,16.20
2023-02-24T11:37:56.040Z,17.10
2023-02-24T11:39:00.785Z,16.50
2023-02-24T11:39:57.102Z,16.40
2023-02-24T11:40:56.135Z,16.50
2023-02-24T11:41:56.003Z,16.00
2023-02-24T11:42:55.989Z,16.30
2023-02-24T11:43:56.029Z,15.70
2023-02-24T11:44:55.947Z,16.00
2023-02-24T11:45:55.959Z,16.20
2023-02-24T11:46:55.971Z,16.70
2023-02-24T11:47:55.950Z,17.40
2023-02-24T11:48:55.926Z,17.00
2023-02-24T11:49:55.915Z,16.00
2023-02-24T11:50:55.898Z,17.10
2023-02-24T11:51:55.896Z,15.90
2023-02-24T11:52:55.907Z,15.90
2023-02-24T11:53:55.888Z,15.40
2023-02-24T11:54:55.873Z,14.50
2023-02-24T11:55:55.860Z,16.30
2023-02-24T11:56:55.861Z,15.90
2023-02-24T11:57:55.817Z,16.90
2023-02-24T11:58:55.812Z,16.80
2023-02-24T11:59:55.785Z,16.50
2023-02-24T12:00:55.792Z,16.50
2023-02-24T12:01:55.775Z,16.30
2023-02-24T12:02:55.806Z,16.50
2023-02-24T12:03:55.787Z,15.90
2023-02-24T12:04:55.741Z,16.10
2023-02-24T12:05:55.809Z,16.10
2023-02-24T12:06:55.713Z,16.60
2023-02-24T12:07:55.720Z,16.30
2023-02-24T12:08:55.733Z,15.40
2023-02-24T12:10:06.985Z,16.60
2023-02-24T12:10:56.690Z,16.00
2023-02-24T12:12:02.700Z,16.20
2023-02-24T12:12:55.661Z,17.10
2023-02-24T12:13:55.652Z,16.20
2023-02-24T12:14:55.626Z,16.50
2023-02-24T12:15:55.654Z,16.70
2023-02-24T12:16:55.625Z,16.60
2023-02-24T12:17:55.607Z,16.80
2023-02-24T12:18:55.596Z,15.90
2023-02-24T12:19:55.582Z,15.00
2023-02-24T12:20:55.571Z,16.20
2023-02-24T12:21:55.567Z,17.30
2023-02-24T12:22:55.567Z,16.60
2023-02-24T12:23:55.569Z,15.60
2023-02-24T12:24:55.520Z,16.00
2023-02-24T12:25:55.536Z,15.80
2023-02-24T12:26:55.582Z,15.40
2023-02-24T12:27:55.509Z,16.10
2023-02-24T12:28:55.473Z,16.60
2023-02-24T12:29:55.510Z,16.50
2023-02-24T12:30:55.478Z,14.70
2023-02-24T12:31:55.588Z,15.50
2023-02-24T12:32:55.507Z,16.40
2023-02-24T12:33:55.435Z,16.70
2023-02-24T12:34:55.453Z,15.50
2023-02-24T12:35:55.421Z,15.40
2023-02-24T12:36:55.453Z,15.50
2023-02-24T12:37:55.387Z,16.10
2023-02-24T12:38:55.402Z,15.00
2023-02-24T12:39:55.392Z,15.80
2023-02-24T12:40:55.373Z,15.60
2023-02-24T12:41:55.357Z,16.50
2023-02-24T12:42:55.327Z,16.00
2023-02-24T12:43:55.335Z,15.80
2023-02-24T12:44:55.294Z,15.90
2023-02-24T12:45:55.377Z,15.30
2023-02-24T12:46:55.303Z,15.60
2023-02-24T12:47:57.173Z,16.10
2023-02-24T12:48:55.272Z,15.30
2023-02-24T12:49:55.252Z,15.70
2023-02-24T12:50:55.227Z,16.30
2023-02-24T12:51:55.228Z,15.90